sensor_id;sensor_type;location;lat;lon;timestamp;P1;durP1;ratioP1;P2;durP2;ratioP2
47545;SDS011;50104;52.002;4.688;2023-03-01T00:04:43;13.17;;;8.73;;
47545;SDS011;50104;52.002;4.688;2023-03-01T00:09:44;12.57;;;8.80;;
47545;SDS011;50104;52.002;4.688;2023-03-01T00:14:45;12.60;;;8.10;;
47545;SDS011;50104;52.002;4.688;2023-03-01T00:19:46;14.40;;;9.57;;
47545;SDS011;50104;52.002;4.688;2023-03-01T00:24:47;13.63;;;8.57;;
47545;SDS011;50104;52.002;4.688;2023-03-01T00:29:48;16.17;;;9.47;;
47545;SDS011;50104;52.002;4.688;2023-03-01T00:34:49;18.40;;;9.83;;
47545;SDS011;50104;52.002;4.688;2023-03-01T00:40:12;15.87;;;9.30;;
47545;SDS011;50104;52.002;4.688;2023-03-01T00:45:16;14.57;;;8.60;;
47545;SDS011;50104;52.002;4.688;2023-03-01T00:50:17;17.57;;;10.13;;
47545;SDS011;50104;52.002;4.688;2023-03-01T00:55:19;15.30;;;9.33;;
47545;SDS011;50104;52.002;4.688;2023-03-01T01:00:20;17.57;;;10.43;;
47545;SDS011;50104;52.002;4.688;2023-03-01T01:05:22;18.33;;;11.80;;
47545;SDS011;50104;52.002;4.688;2023-03-01T01:10:23;18.33;;;12.77;;
47545;SDS011;50104;52.002;4.688;2023-03-01T01:15:23;18.23;;;11.80;;
47545;SDS011;50104;52.002;4.688;2023-03-01T01:20:24;17.97;;;11.97;;
47545;SDS011;50104;52.002;4.688;2023-03-01T01:25:25;21.10;;;12.23;;
47545;SDS011;50104;52.002;4.688;2023-03-01T01:30:26;20.20;;;12.90;;
47545;SDS011;50104;52.002;4.688;2023-03-01T01:35:27;20.70;;;12.37;;
47545;SDS011;50104;52.002;4.688;2023-03-01T01:40:28;21.77;;;13.37;;
47545;SDS011;50104;52.002;4.688;2023-03-01T01:50:35;26.10;;;13.60;;
47545;SDS011;50104;52.002;4.688;2023-03-01T01:55:40;23.63;;;13.47;;
47545;SDS011;50104;52.002;4.688;2023-03-01T02:00:54;19.47;;;13.63;;
47545;SDS011;50104;52.002;4.688;2023-03-01T02:06:00;20.00;;;12.53;;
47545;SDS011;50104;52.002;4.688;2023-03-01T02:11:07;23.30;;;13.57;;
47545;SDS011;50104;52.002;4.688;2023-03-01T02:16:11;22.13;;;13.53;;
47545;SDS011;50104;52.002;4.688;2023-03-01T02:21:25;21.70;;;14.20;;
47545;SDS011;50104;52.002;4.688;2023-03-01T02:26:47;23.37;;;12.67;;
47545;SDS011;50104;52.002;4.688;2023-03-01T02:31:52;20.83;;;12.53;;
47545;SDS011;50104;52.002;4.688;2023-03-01T02:36:59;21.87;;;12.67;;
47545;SDS011;50104;52.002;4.688;2023-03-01T02:47:06;22.53;;;11.47;;
47545;SDS011;50104;52.002;4.688;2023-03-01T02:52:23;17.97;;;11.50;;
47545;SDS011;50104;52.002;4.688;2023-03-01T02:57:46;20.53;;;12.30;;
47545;SDS011;50104;52.002;4.688;2023-03-01T03:02:52;21.60;;;12.23;;
47545;SDS011;50104;52.002;4.688;2023-03-01T03:07:54;19.07;;;12.07;;
47545;SDS011;50104;52.002;4.688;2023-03-01T03:12:58;20.47;;;12.27;;
47545;SDS011;50104;52.002;4.688;2023-03-01T03:18:07;20.77;;;11.83;;
47545;SDS011;50104;52.002;4.688;2023-03-01T03:23:11;21.03;;;13.30;;
47545;SDS011;50104;52.002;4.688;2023-03-01T03:28:12;18.77;;;12.70;;
47545;SDS011;50104;52.002;4.688;2023-03-01T03:33:13;26.57;;;12.67;;
47545;SDS011;50104;52.002;4.688;2023-03-01T03:38:15;20.30;;;11.60;;
47545;SDS011;50104;52.002;4.688;2023-03-01T03:43:20;22.10;;;12.37;;
47545;SDS011;50104;52.002;4.688;2023-03-01T03:48:23;23.47;;;11.80;;
47545;SDS011;50104;52.002;4.688;2023-03-01T03:53:25;20.70;;;12.30;;
47545;SDS011;50104;52.002;4.688;2023-03-01T03:58:28;21.50;;;11.07;;
47545;SDS011;50104;52.002;4.688;2023-03-01T04:03:29;23.23;;;12.30;;
47545;SDS011;50104;52.002;4.688;2023-03-01T04:08:32;20.03;;;12.50;;
47545;SDS011;50104;52.002;4.688;2023-03-01T04:13:33;19.50;;;11.87;;
47545;SDS011;50104;52.002;4.688;2023-03-01T04:18:33;20.57;;;12.67;;
47545;SDS011;50104;52.002;4.688;2023-03-01T04:23:34;25.13;;;13.03;;
47545;SDS011;50104;52.002;4.688;2023-03-01T04:28:37;20.90;;;12.43;;
47545;SDS011;50104;52.002;4.688;2023-03-01T04:33:43;24.08;;;13.00;;
47545;SDS011;50104;52.002;4.688;2023-03-01T04:38:53;23.13;;;11.73;;
47545;SDS011;50104;52.002;4.688;2023-03-01T04:43:54;19.83;;;12.17;;
47545;SDS011;50104;52.002;4.688;2023-03-01T04:48:55;19.23;;;11.70;;
47545;SDS011;50104;52.002;4.688;2023-03-01T04:53:56;23.90;;;12.53;;
47545;SDS011;50104;52.002;4.688;2023-03-01T04:58:57;27.73;;;13.63;;
47545;SDS011;50104;52.002;4.688;2023-03-01T05:03:58;18.27;;;11.50;;
47545;SDS011;50104;52.002;4.688;2023-03-01T05:09:02;25.40;;;12.70;;
47545;SDS011;50104;52.002;4.688;2023-03-01T05:14:06;23.87;;;11.63;;
47545;SDS011;50104;52.002;4.688;2023-03-01T05:19:08;20.50;;;11.93;;
47545;SDS011;50104;52.002;4.688;2023-03-01T05:24:15;20.13;;;11.47;;
47545;SDS011;50104;52.002;4.688;2023-03-01T05:29:16;18.80;;;11.00;;
47545;SDS011;50104;52.002;4.688;2023-03-01T05:34:16;19.33;;;10.97;;
47545;SDS011;50104;52.002;4.688;2023-03-01T05:39:17;18.23;;;10.77;;
47545;SDS011;50104;52.002;4.688;2023-03-01T05:44:23;15.93;;;8.97;;
47545;SDS011;50104;52.002;4.688;2023-03-01T05:49:25;14.87;;;10.00;;
47545;SDS011;50104;52.002;4.688;2023-03-01T05:54:26;19.17;;;10.90;;
47545;SDS011;50104;52.002;4.688;2023-03-01T05:59:27;21.00;;;9.60;;
47545;SDS011;50104;52.002;4.688;2023-03-01T06:04:27;18.13;;;10.03;;
47545;SDS011;50104;52.002;4.688;2023-03-01T06:09:28;16.93;;;9.83;;
47545;SDS011;50104;52.002;4.688;2023-03-01T06:14:29;15.37;;;9.17;;
47545;SDS011;50104;52.002;4.688;2023-03-01T06:19:30;15.70;;;9.50;;
47545;SDS011;50104;52.002;4.688;2023-03-01T06:24:30;16.07;;;9.87;;
47545;SDS011;50104;52.002;4.688;2023-03-01T06:29:32;18.57;;;11.03;;
47545;SDS011;50104;52.002;4.688;2023-03-01T06:34:33;17.90;;;10.63;;
47545;SDS011;50104;52.002;4.688;2023-03-01T06:39:34;15.50;;;10.20;;
47545;SDS011;50104;52.002;4.688;2023-03-01T06:44:36;15.03;;;10.10;;
47545;SDS011;50104;52.002;4.688;2023-03-01T06:49:37;15.87;;;10.20;;
47545;SDS011;50104;52.002;4.688;2023-03-01T06:54:39;15.83;;;9.90;;
47545;SDS011;50104;52.002;4.688;2023-03-01T06:59:40;23.60;;;11.03;;
47545;SDS011;50104;52.002;4.688;2023-03-01T07:04:41;20.80;;;10.50;;
47545;SDS011;50104;52.002;4.688;2023-03-01T07:09:43;20.03;;;10.67;;
47545;SDS011;50104;52.002;4.688;2023-03-01T07:14:45;19.67;;;11.07;;
47545;SDS011;50104;52.002;4.688;2023-03-01T07:19:45;19.33;;;11.10;;
47545;SDS011;50104;52.002;4.688;2023-03-01T07:24:46;18.93;;;9.87;;
47545;SDS011;50104;52.002;4.688;2023-03-01T07:29:47;20.23;;;10.63;;
47545;SDS011;50104;52.002;4.688;2023-03-01T07:34:48;16.80;;;10.00;;
47545;SDS011;50104;52.002;4.688;2023-03-01T07:39:49;19.90;;;9.67;;
47545;SDS011;50104;52.002;4.688;2023-03-01T07:44:50;18.37;;;10.47;;
47545;SDS011;50104;52.002;4.688;2023-03-01T07:49:51;18.50;;;9.33;;
47545;SDS011;50104;52.002;4.688;2023-03-01T07:54:51;19.03;;;10.30;;
47545;SDS011;50104;52.002;4.688;2023-03-01T07:59:52;18.90;;;9.97;;
47545;SDS011;50104;52.002;4.688;2023-03-01T08:04:53;16.40;;;9.00;;
47545;SDS011;50104;52.002;4.688;2023-03-01T08:09:54;15.33;;;8.67;;
47545;SDS011;50104;52.002;4.688;2023-03-01T08:14:55;16.03;;;9.53;;
47545;SDS011;50104;52.002;4.688;2023-03-01T08:19:57;15.13;;;9.03;;
47545;SDS011;50104;52.002;4.688;2023-03-01T08:24:57;13.93;;;8.20;;
47545;SDS011;50104;52.002;4.688;2023-03-01T08:29:58;16.17;;;8.20;;
47545;SDS011;50104;52.002;4.688;2023-03-01T08:34:59;13.00;;;7.90;;
47545;SDS011;50104;52.002;4.688;2023-03-01T08:40:00;14.30;;;8.90;;
47545;SDS011;50104;52.002;4.688;2023-03-01T08:45:01;12.30;;;7.40;;
47545;SDS011;50104;52.002;4.688;2023-03-01T08:50:04;8.33;;;5.17;;
47545;SDS011;50104;52.002;4.688;2023-03-01T08:55:06;12.03;;;7.33;;
47545;SDS011;50104;52.002;4.688;2023-03-01T09:00:08;13.10;;;6.70;;
47545;SDS011;50104;52.002;4.688;2023-03-01T09:05:11;15.10;;;8.27;;
47545;SDS011;50104;52.002;4.688;2023-03-01T09:15:53;13.07;;;8.57;;
47545;SDS011;50104;52.002;4.688;2023-03-01T09:21:04;10.83;;;6.77;;
47545;SDS011;50104;52.002;4.688;2023-03-01T09:26:10;16.53;;;8.47;;
47545;SDS011;50104;52.002;4.688;2023-03-01T09:31:17;13.50;;;7.57;;
47545;SDS011;50104;52.002;4.688;2023-03-01T09:36:20;11.33;;;7.13;;
47545;SDS011;50104;52.002;4.688;2023-03-01T09:46:46;9.53;;;6.87;;
47545;SDS011;50104;52.002;4.688;2023-03-01T09:52:01;9.27;;;6.67;;
47545;SDS011;50104;52.002;4.688;2023-03-01T09:57:29;6.43;;;5.30;;
47545;SDS011;50104;52.002;4.688;2023-03-01T10:02:39;8.93;;;5.90;;
47545;SDS011;50104;52.002;4.688;2023-03-01T10:08:21;6.97;;;5.17;;
47545;SDS011;50104;52.002;4.688;2023-03-01T10:18:42;10.77;;;7.45;;
47545;SDS011;50104;52.002;4.688;2023-03-01T10:23:49;13.85;;;7.68;;
47545;SDS011;50104;52.002;4.688;2023-03-01T10:28:56;10.38;;;7.38;;
47545;SDS011;50104;52.002;4.688;2023-03-01T10:34:14;10.95;;;6.75;;
47545;SDS011;50104;52.002;4.688;2023-03-01T10:39:21;10.68;;;7.35;;
47545;SDS011;50104;52.002;4.688;2023-03-01T10:50:27;9.80;;;7.15;;
47545;SDS011;50104;52.002;4.688;2023-03-01T10:55:33;13.30;;;7.13;;
47545;SDS011;50104;52.002;4.688;2023-03-01T11:00:45;10.32;;;7.35;;
47545;SDS011;50104;52.002;4.688;2023-03-01T11:05:55;8.57;;;6.57;;
47545;SDS011;50104;52.002;4.688;2023-03-01T11:11:18;8.77;;;6.20;;
47545;SDS011;50104;52.002;4.688;2023-03-01T11:16:31;8.40;;;6.03;;
47545;SDS011;50104;52.002;4.688;2023-03-01T11:21:36;9.10;;;6.30;;
47545;SDS011;50104;52.002;4.688;2023-03-01T11:27:03;8.43;;;5.93;;
47545;SDS011;50104;52.002;4.688;2023-03-01T11:32:28;7.45;;;5.45;;
47545;SDS011;50104;52.002;4.688;2023-03-01T11:43:44;6.75;;;4.53;;
47545;SDS011;50104;52.002;4.688;2023-03-01T12:00:02;7.38;;;5.05;;
47545;SDS011;50104;52.002;4.688;2023-03-01T12:11:25;6.32;;;4.55;;
47545;SDS011;50104;52.002;4.688;2023-03-01T12:32:51;5.63;;;4.70;;
47545;SDS011;50104;52.002;4.688;2023-03-01T12:43:36;5.93;;;4.38;;
47545;SDS011;50104;52.002;4.688;2023-03-01T12:49:16;5.68;;;4.35;;
47545;SDS011;50104;52.002;4.688;2023-03-01T12:54:31;5.30;;;3.85;;
47545;SDS011;50104;52.002;4.688;2023-03-01T12:59:59;5.68;;;4.30;;
47545;SDS011;50104;52.002;4.688;2023-03-01T13:11:05;4.65;;;4.00;;
47545;SDS011;50104;52.002;4.688;2023-03-01T13:16:38;4.68;;;4.15;;
47545;SDS011;50104;52.002;4.688;2023-03-01T13:21:46;5.82;;;3.90;;
47545;SDS011;50104;52.002;4.688;2023-03-01T13:32:21;7.80;;;4.50;;
47545;SDS011;50104;52.002;4.688;2023-03-01T13:37:34;8.68;;;4.53;;
47545;SDS011;50104;52.002;4.688;2023-03-01T13:42:38;5.15;;;4.18;;
47545;SDS011;50104;52.002;4.688;2023-03-01T13:47:43;9.38;;;5.35;;
47545;SDS011;50104;52.002;4.688;2023-03-01T13:52:57;6.13;;;4.27;;
47545;SDS011;50104;52.002;4.688;2023-03-01T13:58:01;5.45;;;4.18;;
47545;SDS011;50104;52.002;4.688;2023-03-01T14:03:17;5.55;;;4.40;;
47545;SDS011;50104;52.002;4.688;2023-03-01T14:08:21;5.20;;;4.30;;
47545;SDS011;50104;52.002;4.688;2023-03-01T14:18:52;6.50;;;5.20;;
47545;SDS011;50104;52.002;4.688;2023-03-01T14:24:06;5.20;;;3.53;;
47545;SDS011;50104;52.002;4.688;2023-03-01T14:29:32;4.63;;;4.15;;
47545;SDS011;50104;52.002;4.688;2023-03-01T14:34:36;5.45;;;4.35;;
47545;SDS011;50104;52.002;4.688;2023-03-01T14:39:43;6.45;;;4.15;;
47545;SDS011;50104;52.002;4.688;2023-03-01T14:44:45;4.38;;;3.70;;
47545;SDS011;50104;52.002;4.688;2023-03-01T14:49:49;6.72;;;3.90;;
47545;SDS011;50104;52.002;4.688;2023-03-01T14:54:57;5.95;;;3.78;;
47545;SDS011;50104;52.002;4.688;2023-03-01T14:59:59;5.82;;;4.30;;
47545;SDS011;50104;52.002;4.688;2023-03-01T15:05:05;4.87;;;3.77;;
47545;SDS011;50104;52.002;4.688;2023-03-01T15:10:14;7.18;;;4.30;;
47545;SDS011;50104;52.002;4.688;2023-03-01T15:20:28;4.20;;;3.77;;
47545;SDS011;50104;52.002;4.688;2023-03-01T15:25:35;6.87;;;3.93;;
47545;SDS011;50104;52.002;4.688;2023-03-01T15:30:38;6.15;;;3.97;;
47545;SDS011;50104;52.002;4.688;2023-03-01T15:35:42;5.00;;;4.07;;
47545;SDS011;50104;52.002;4.688;2023-03-01T15:40:51;8.30;;;4.13;;
47545;SDS011;50104;52.002;4.688;2023-03-01T15:45:56;5.05;;;3.60;;
47545;SDS011;50104;52.002;4.688;2023-03-01T15:50:58;7.95;;;4.45;;
47545;SDS011;50104;52.002;4.688;2023-03-01T15:55:59;4.78;;;3.75;;
47545;SDS011;50104;52.002;4.688;2023-03-01T16:01:00;5.90;;;4.05;;
47545;SDS011;50104;52.002;4.688;2023-03-01T16:06:01;7.05;;;4.05;;
47545;SDS011;50104;52.002;4.688;2023-03-01T16:11:04;6.03;;;4.20;;
47545;SDS011;50104;52.002;4.688;2023-03-01T16:16:18;10.07;;;4.22;;
47545;SDS011;50104;52.002;4.688;2023-03-01T16:21:22;4.75;;;3.80;;
47545;SDS011;50104;52.002;4.688;2023-03-01T16:26:25;5.10;;;3.72;;
47545;SDS011;50104;52.002;4.688;2023-03-01T16:31:26;4.72;;;4.00;;
47545;SDS011;50104;52.002;4.688;2023-03-01T16:36:28;6.10;;;4.18;;
47545;SDS011;50104;52.002;4.688;2023-03-01T16:41:29;6.03;;;4.18;;
47545;SDS011;50104;52.002;4.688;2023-03-01T16:46:30;6.70;;;3.95;;
47545;SDS011;50104;52.002;4.688;2023-03-01T16:51:31;19.80;;;8.77;;
47545;SDS011;50104;52.002;4.688;2023-03-01T16:56:34;6.63;;;4.10;;
47545;SDS011;50104;52.002;4.688;2023-03-01T17:01:37;5.25;;;4.28;;
47545;SDS011;50104;52.002;4.688;2023-03-01T17:06:40;6.80;;;4.05;;
47545;SDS011;50104;52.002;4.688;2023-03-01T17:11:41;7.10;;;3.70;;
47545;SDS011;50104;52.002;4.688;2023-03-01T17:16:43;7.85;;;5.10;;
47545;SDS011;50104;52.002;4.688;2023-03-01T17:21:45;9.20;;;5.15;;
47545;SDS011;50104;52.002;4.688;2023-03-01T17:26:45;7.00;;;4.43;;
47545;SDS011;50104;52.002;4.688;2023-03-01T17:31:46;7.07;;;4.88;;
47545;SDS011;50104;52.002;4.688;2023-03-01T17:36:47;8.25;;;5.07;;
47545;SDS011;50104;52.002;4.688;2023-03-01T17:41:51;6.97;;;4.60;;
47545;SDS011;50104;52.002;4.688;2023-03-01T17:46:52;6.57;;;5.10;;
47545;SDS011;50104;52.002;4.688;2023-03-01T17:51:53;7.40;;;4.95;;
47545;SDS011;50104;52.002;4.688;2023-03-01T17:56:54;6.78;;;4.72;;
47545;SDS011;50104;52.002;4.688;2023-03-01T18:01:58;7.00;;;5.22;;
47545;SDS011;50104;52.002;4.688;2023-03-01T18:07:00;6.20;;;5.47;;
47545;SDS011;50104;52.002;4.688;2023-03-01T18:12:01;7.05;;;5.28;;
47545;SDS011;50104;52.002;4.688;2023-03-01T18:17:02;7.50;;;5.75;;
47545;SDS011;50104;52.002;4.688;2023-03-01T18:22:06;9.63;;;5.40;;
47545;SDS011;50104;52.002;4.688;2023-03-01T18:27:09;8.00;;;5.60;;
47545;SDS011;50104;52.002;4.688;2023-03-01T18:32:10;8.55;;;5.78;;
47545;SDS011;50104;52.002;4.688;2023-03-01T18:37:11;9.45;;;5.63;;
47545;SDS011;50104;52.002;4.688;2023-03-01T18:42:12;7.57;;;5.38;;
47545;SDS011;50104;52.002;4.688;2023-03-01T18:47:15;8.52;;;5.63;;
47545;SDS011;50104;52.002;4.688;2023-03-01T18:52:16;9.23;;;7.03;;
47545;SDS011;50104;52.002;4.688;2023-03-01T18:57:17;11.70;;;7.47;;
47545;SDS011;50104;52.002;4.688;2023-03-01T19:02:27;9.35;;;6.10;;
47545;SDS011;50104;52.002;4.688;2023-03-01T19:07:28;9.77;;;6.03;;
47545;SDS011;50104;52.002;4.688;2023-03-01T19:12:29;9.48;;;6.78;;
47545;SDS011;50104;52.002;4.688;2023-03-01T19:17:30;13.10;;;6.97;;
47545;SDS011;50104;52.002;4.688;2023-03-01T19:22:31;10.88;;;7.15;;
47545;SDS011;50104;52.002;4.688;2023-03-01T19:27:32;11.85;;;7.07;;
47545;SDS011;50104;52.002;4.688;2023-03-01T19:32:34;9.90;;;6.82;;
47545;SDS011;50104;52.002;4.688;2023-03-01T19:37:36;10.73;;;5.90;;
47545;SDS011;50104;52.002;4.688;2023-03-01T19:42:37;11.20;;;6.37;;
47545;SDS011;50104;52.002;4.688;2023-03-01T19:47:38;11.20;;;6.70;;
47545;SDS011;50104;52.002;4.688;2023-03-01T19:52:39;10.70;;;6.30;;
47545;SDS011;50104;52.002;4.688;2023-03-01T19:57:39;11.23;;;6.17;;
47545;SDS011;50104;52.002;4.688;2023-03-01T20:02:40;9.47;;;6.47;;
47545;SDS011;50104;52.002;4.688;2023-03-01T20:07:41;11.03;;;5.77;;
47545;SDS011;50104;52.002;4.688;2023-03-01T20:12:42;8.17;;;6.40;;
47545;SDS011;50104;52.002;4.688;2023-03-01T20:17:43;13.03;;;7.00;;
47545;SDS011;50104;52.002;4.688;2023-03-01T20:22:44;12.80;;;7.43;;
47545;SDS011;50104;52.002;4.688;2023-03-01T20:27:45;8.93;;;6.57;;
47545;SDS011;50104;52.002;4.688;2023-03-01T20:32:46;10.13;;;6.87;;
47545;SDS011;50104;52.002;4.688;2023-03-01T20:37:49;9.43;;;5.87;;
47545;SDS011;50104;52.002;4.688;2023-03-01T20:42:55;12.87;;;6.83;;
47545;SDS011;50104;52.002;4.688;2023-03-01T20:47:57;9.93;;;7.27;;
47545;SDS011;50104;52.002;4.688;2023-03-01T20:52:58;12.10;;;7.57;;
47545;SDS011;50104;52.002;4.688;2023-03-01T20:57:59;10.20;;;6.97;;
47545;SDS011;50104;52.002;4.688;2023-03-01T21:03:00;12.63;;;7.13;;
47545;SDS011;50104;52.002;4.688;2023-03-01T21:08:03;11.73;;;7.00;;
47545;SDS011;50104;52.002;4.688;2023-03-01T21:13:04;11.70;;;7.97;;
47545;SDS011;50104;52.002;4.688;2023-03-01T21:18:05;10.03;;;7.40;;
47545;SDS011;50104;52.002;4.688;2023-03-01T21:23:06;11.27;;;7.43;;
47545;SDS011;50104;52.002;4.688;2023-03-01T21:28:07;14.17;;;7.70;;
47545;SDS011;50104;52.002;4.688;2023-03-01T21:33:08;14.73;;;8.30;;
47545;SDS011;50104;52.002;4.688;2023-03-01T21:38:09;15.07;;;8.53;;
47545;SDS011;50104;52.002;4.688;2023-03-01T21:43:10;11.83;;;8.37;;
47545;SDS011;50104;52.002;4.688;2023-03-01T21:48:10;12.33;;;7.70;;
47545;SDS011;50104;52.002;4.688;2023-03-01T21:53:12;10.73;;;7.07;;
47545;SDS011;50104;52.002;4.688;2023-03-01T21:58:12;10.77;;;6.77;;
47545;SDS011;50104;52.002;4.688;2023-03-01T22:03:14;12.60;;;7.63;;
47545;SDS011;50104;52.002;4.688;2023-03-01T22:08:15;12.17;;;8.23;;
47545;SDS011;50104;52.002;4.688;2023-03-01T22:13:16;12.80;;;7.57;;
47545;SDS011;50104;52.002;4.688;2023-03-01T22:18:18;13.23;;;7.90;;
47545;SDS011;50104;52.002;4.688;2023-03-01T22:23:19;11.63;;;7.70;;
47545;SDS011;50104;52.002;4.688;2023-03-01T22:28:20;10.93;;;7.40;;
47545;SDS011;50104;52.002;4.688;2023-03-01T22:33:21;12.80;;;7.40;;
47545;SDS011;50104;52.002;4.688;2023-03-01T22:38:22;13.17;;;7.60;;
47545;SDS011;50104;52.002;4.688;2023-03-01T22:43:23;15.87;;;8.97;;
47545;SDS011;50104;52.002;4.688;2023-03-01T22:48:24;13.20;;;6.87;;
47545;SDS011;50104;52.002;4.688;2023-03-01T22:53:25;15.10;;;7.90;;
47545;SDS011;50104;52.002;4.688;2023-03-01T22:58:26;14.47;;;8.40;;
47545;SDS011;50104;52.002;4.688;2023-03-01T23:03:27;13.50;;;8.30;;
47545;SDS011;50104;52.002;4.688;2023-03-01T23:08:28;14.13;;;7.87;;
47545;SDS011;50104;52.002;4.688;2023-03-01T23:13:29;18.00;;;8.53;;
47545;SDS011;50104;52.002;4.688;2023-03-01T23:18:29;13.50;;;9.13;;
47545;SDS011;50104;52.002;4.688;2023-03-01T23:23:30;15.47;;;7.90;;
47545;SDS011;50104;52.002;4.688;2023-03-01T23:28:32;17.20;;;10.23;;
47545;SDS011;50104;52.002;4.688;2023-03-01T23:33:34;21.20;;;10.50;;
47545;SDS011;50104;52.002;4.688;2023-03-01T23:38:38;17.87;;;8.97;;
47545;SDS011;50104;52.002;4.688;2023-03-01T23:43:42;18.03;;;10.77;;
47545;SDS011;50104;52.002;4.688;2023-03-01T23:48:45;19.90;;;10.23;;
47545;SDS011;50104;52.002;4.688;2023-03-01T23:53:48;20.57;;;12.03;;
47545;SDS011;50104;52.002;4.688;2023-03-01T23:58:56;19.97;;;10.87;;
